Time;durP1;ratioP1;P1;durP2;ratioP2;P2;SDS_P1;SDS_P2;PMS_P1;PMS_P2;Temp;Humidity;BMP_temperature;BMP_pressure;BME280_temperature;BME280_humidity;BME280_pressure;Samples;Min_cycle;Max_cycle;Signal;HPM_P1;HPM_P2
2022/06/07 00:01:21;;;;;;;;;;;16.30;99.90;;;16.59;81.58;101195.41;4843174;29;19924;-67
2022/06/07 00:03:49;;;;;;;;;;;16.30;99.90;;;16.64;81.59;101198.84;4843134;29;19999;-66
2022/06/07 00:06:19;;;;;;;;;;;16.40;99.90;;;16.61;81.95;101196.22;4843361;29;19970;-67
2022/06/07 00:08:47;;;;;;;;;;;16.40;99.90;;;16.67;81.79;101196.09;4843291;29;20022;-67
2022/06/07 00:11:18;;;;;;;;;;;16.40;99.90;;;16.65;81.78;101192.56;4842431;29;20389;-67
2022/06/07 00:13:47;;;;;;;;;;;16.40;99.90;;;16.54;82.17;101175.94;4843350;29;20290;-67
2022/06/07 00:16:17;;;;;;;;;;;16.40;99.90;;;16.62;82.42;101192.66;4843614;29;19924;-67
2022/06/07 00:18:45;;;;;;;;;;;16.40;99.90;;;16.52;83.21;101193.78;4842967;29;20387;-67
2022/06/07 00:21:13;;;;;;;;;;;16.30;99.90;;;16.48;83.27;101185.84;4842880;29;20015;-67
2022/06/07 00:23:42;;;;;;;;;;;16.30;99.90;;;16.61;82.88;101182.88;4842887;29;19958;-67
2022/06/07 00:26:10;;;;;;;;;;;16.30;99.90;;;16.59;82.90;101179.38;4842834;29;19988;-68
2022/06/07 00:28:40;;;;;;;;;;;16.30;99.90;;;16.62;82.87;101183.75;4842834;29;20027;-67
2022/06/07 00:31:08;;;;;;;;;;;16.30;99.90;;;16.64;82.92;101179.28;4841834;29;19924;-67
2022/06/07 00:33:37;;;;;;;;;;;16.40;99.90;;;16.55;83.40;101174.16;4841784;29;20390;-67
2022/06/07 00:36:05;;;;;;;;;;;16.30;99.90;;;16.63;83.18;101185.50;4842537;29;19952;-67
2022/06/07 00:38:33;;;;;;;;;;;16.40;99.90;;;16.61;82.77;101173.97;4842648;29;20011;-67
2022/06/07 00:41:03;;;;;;;;;;;16.30;99.90;;;16.52;82.56;101176.88;4842665;29;20019;-67
2022/06/07 00:43:31;;;;;;;;;;;16.30;99.90;;;16.49;82.10;101145.78;4842804;29;19929;-67
2022/06/07 00:46:01;;;;;;;;;;;16.30;99.90;;;16.61;81.89;101177.53;4842639;29;20014;-67
2022/06/07 00:48:29;;;;;;;;;;;16.40;99.90;;;16.61;81.34;101172.19;4842777;29;19931;-67
2022/06/07 00:51:01;;;;;;;;;;;16.40;99.90;;;16.32;81.51;101160.44;4842577;29;19931;-67
2022/06/07 00:53:30;;;;;;;;;;;16.20;99.90;;;16.34;81.13;101153.28;4842845;29;19924;-67
2022/06/07 00:56:12;;;;;;;;;;;16.10;99.90;;;16.36;81.37;101162.09;4841659;29;19931;-67
2022/06/07 00:58:41;;;;;;;;;;;16.10;99.90;;;16.45;81.02;101164.56;4841428;29;19939;-67
2022/06/07 01:01:10;;;;;;;;;;;16.20;99.90;;;16.35;81.68;101150.56;4841532;29;19971;-67
2022/06/07 01:03:43;;;;;;;;;;;16.20;99.90;;;16.40;81.79;101153.09;4841446;29;19956;-67
2022/06/07 01:12:02;;;;;;;;;;;16.30;99.90;;;16.45;81.65;101153.88;4822298;29;20039;-67
2022/06/07 01:14:30;;;;;;;;;;;16.20;99.90;;;16.57;81.86;101150.97;4842568;29;19924;-68
2022/06/07 01:16:59;;;;;;;;;;;16.30;99.90;;;16.63;81.61;101146.31;4841388;29;19925;-67
2022/06/07 01:19:28;;;;;;;;;;;16.40;99.90;;;16.75;81.46;101150.50;4841339;29;19992;-67
2022/06/07 01:21:57;;;;;;;;;;;16.50;99.90;;;16.65;81.25;101143.59;4843222;29;19973;-67
2022/06/07 01:24:25;;;;;;;;;;;16.50;99.90;;;16.49;81.14;101124.41;4844973;29;19928;-67
2022/06/07 01:27:12;;;;;;;;;;;16.40;99.90;;;16.48;81.16;101132.44;4845052;29;19932;-67
2022/06/07 01:29:42;;;;;;;;;;;16.30;99.90;;;16.51;80.74;101140.44;4844823;29;19963;-68
2022/06/07 01:32:13;;;;;;;;;;;16.30;99.90;;;16.57;79.95;101142.94;4844861;29;19949;-68
2022/06/07 01:34:43;;;;;;;;;;;16.30;99.90;;;16.58;79.38;101145.56;4844453;29;19929;-67
2022/06/07 01:37:18;;;;;;;;;;;16.30;99.90;;;16.51;78.83;101140.44;4844700;29;20439;-67
2022/06/07 01:42:32;;;;;;;;;;;16.30;99.90;;;16.62;78.08;101144.59;4846016;29;19928;-67
2022/06/07 01:45:00;;;;;;;;;;;16.30;99.90;;;16.60;77.81;101133.06;4844606;29;19930;-67
2022/06/07 01:47:33;;;;;;;;;;;16.30;99.90;;;16.64;77.60;101129.41;4844598;29;20488;-67
2022/06/07 01:50:05;;;;;;;;;;;16.40;99.90;;;16.65;77.72;101132.94;4844540;29;20022;-67
2022/06/07 01:52:36;;;;;;;;;;;16.40;99.90;;;16.54;77.76;101111.84;4845744;29;19989;-67
2022/06/07 01:55:27;;;;;;;;;;;16.40;99.90;;;16.68;77.73;101132.88;4844504;29;20367;-67
2022/06/07 01:58:01;;;;;;;;;;;16.40;99.90;;;16.73;77.73;101129.16;4844293;29;19925;-67
2022/06/07 02:00:30;;;;;;;;;;;16.50;99.90;;;16.75;77.87;101121.97;4844398;29;19928;-67
2022/06/07 02:02:59;;;;;;;;;;;16.50;99.90;;;16.83;77.86;101127.13;4844623;29;19930;-67
2022/06/07 02:05:28;;;;;;;;;;;16.50;99.90;;;16.78;77.86;101119.22;4841161;29;19925;-68
2022/06/07 02:08:00;;;;;;;;;;;16.60;99.90;;;16.94;77.83;101120.59;4841293;29;20268;-67
2022/06/07 02:10:34;;;;;;;;;;;16.60;99.90;;;16.88;77.90;101112.72;4841195;29;20004;-67
2022/06/07 02:13:09;;;;;;;;;;;16.60;99.90;;;16.94;77.81;101120.59;4826838;29;19947;-67
2022/06/07 02:15:37;;;;;;;;;;;16.70;99.90;;;16.99;77.98;101121.31;4827330;29;19989;-68
2022/06/07 02:18:06;;;;;;;;;;;16.70;99.90;;;16.83;77.97;101082.59;4825657;29;19977;-67
2022/06/07 02:20:59;;;;;;;;;;;16.70;99.90;;;17.04;78.06;101114.09;4808908;29;20414;-67
2022/06/07 02:23:30;;;;;;;;;;;16.80;99.90;;;17.03;78.19;101116.81;4825379;29;19925;-67
2022/06/07 02:26:03;;;;;;;;;;;16.80;99.90;;;17.03;78.20;101109.63;4825670;29;19925;-68
2022/06/07 02:28:34;;;;;;;;;;;16.80;99.90;;;17.02;78.22;101117.72;4840922;29;19925;-67
2022/06/07 02:31:04;;;;;;;;;;;16.70;99.90;;;16.71;77.97;101087.38;4840782;29;19936;-68
2022/06/07 02:33:32;;;;;;;;;;;16.70;99.90;;;16.89;77.91;101111.81;4824758;29;19933;-67
2022/06/07 02:36:01;;;;;;;;;;;16.60;99.90;;;16.88;77.60;101112.72;4825410;29;20368;-67
2022/06/07 02:38:30;;;;;;;;;;;16.60;99.90;;;16.83;77.48;101117.31;4825405;29;20031;-67
2022/06/07 02:40:59;;;;;;;;;;;16.60;99.90;;;16.71;77.69;101106.94;4826650;29;19924;-67
2022/06/07 02:43:27;;;;;;;;;;;16.50;99.90;;;16.54;78.50;101103.84;4840599;29;19925;-67
2022/06/07 02:45:55;;;;;;;;;;;16.30;99.90;;;16.63;78.14;101110.72;4826270;29;19929;-67
2022/06/07 02:48:24;;;;;;;;;;;16.40;99.90;;;16.60;78.52;101103.69;4840191;29;19929;-67
2022/06/07 02:50:53;;;;;;;;;;;16.40;99.90;;;16.72;78.43;101110.50;4840123;29;19976;-67
2022/06/07 02:53:21;;;;;;;;;;;16.40;99.90;;;16.69;78.44;101107.91;4826395;29;19941;-67
2022/06/07 02:55:51;;;;;;;;;;;16.50;99.90;;;16.75;78.37;101100.63;4840400;29;19983;-68
2022/06/07 02:58:23;;;;;;;;;;;16.50;99.90;;;16.68;78.58;101098.16;4825194;29;19929;-67
2022/06/07 03:00:53;;;;;;;;;;;16.50;99.90;;;16.74;78.43;101092.66;4825084;29;19952;-67
2022/06/07 03:03:24;;;;;;;;;;;16.50;99.90;;;16.57;78.96;101095.72;4826802;29;20372;-67
2022/06/07 03:05:52;;;;;;;;;;;16.40;99.90;;;16.70;79.05;101105.22;4843266;29;19932;-67
2022/06/07 03:08:26;;;;;;;;;;;16.40;99.90;;;16.55;79.04;101068.19;4843186;29;19973;-67
2022/06/07 03:11:01;;;;;;;;;;;16.50;99.90;;;16.77;79.01;101101.44;4842856;29;19928;-67
2022/06/07 03:13:31;;;;;;;;;;;16.50;99.90;;;16.62;78.96;101079.59;4843146;29;19928;-67
2022/06/07 03:16:01;;;;;;;;;;;16.50;99.90;;;16.74;78.87;101098.84;4844014;29;19964;-68
2022/06/07 03:18:30;;;;;;;;;;;16.50;99.90;;;16.71;79.02;101098.06;4844204;29;19947;-67
2022/06/07 03:20:58;;;;;;;;;;;16.50;99.90;;;16.79;78.74;101104.06;4842626;29;19960;-67
2022/06/07 03:23:27;;;;;;;;;;;16.50;99.90;;;16.85;78.71;101102.13;4842563;29;19925;-67
2022/06/07 03:26:07;;;;;;;;;;;16.60;99.90;;;16.70;78.85;101096.31;4842691;29;19971;-67
2022/06/07 03:28:38;;;;;;;;;;;16.50;99.90;;;16.73;78.61;101102.44;4827662;29;19928;-67
2022/06/07 03:31:12;;;;;;;;;;;16.50;99.90;;;16.69;78.75;101106.09;4842787;29;19978;-67
2022/06/07 03:33:46;;;;;;;;;;;16.40;99.90;;;16.73;78.28;101105.13;4843088;29;19928;-67
2022/06/07 03:36:19;;;;;;;;;;;16.50;99.90;;;16.69;78.10;101116.78;4842427;29;19925;-67
2022/06/07 03:38:47;;;;;;;;;;;16.50;99.90;;;16.54;78.36;101071.78;4843938;29;20332;-67
2022/06/07 03:41:19;;;;;;;;;;;16.50;99.90;;;16.75;78.12;101113.09;4842537;29;20260;-67
2022/06/07 03:43:47;;;;;;;;;;;16.50;99.90;;;16.73;78.09;101112.25;4842354;29;19924;-68
2022/06/07 03:46:18;;;;;;;;;;;16.50;99.90;;;16.72;78.16;101106.06;4841584;29;19925;-67
2022/06/07 03:48:47;;;;;;;;;;;16.50;99.90;;;16.69;78.33;101114.13;4842430;29;20264;-67
2022/06/07 03:51:18;;;;;;;;;;;16.40;99.90;;;16.73;78.37;101115.81;4843633;29;20293;-67
2022/06/07 03:53:47;;;;;;;;;;;16.40;99.90;;;16.63;78.29;101100.91;4842438;29;19925;-67
2022/06/07 03:56:23;;;;;;;;;;;16.40;99.90;;;16.55;78.40;101115.41;4842466;29;20473;-67
2022/06/07 03:58:54;;;;;;;;;;;16.40;99.90;;;16.49;78.65;101119.06;4842419;29;19963;-67
2022/06/07 04:01:24;;;;;;;;;;;16.30;99.90;;;16.61;78.77;101132.13;4842241;29;19925;-67
2022/06/07 04:03:55;;;;;;;;;;;16.30;99.90;;;16.40;78.85;101081.91;4842064;29;19924;-67
2022/06/07 04:06:25;;;;;;;;;;;16.40;99.90;;;16.60;78.99;101121.50;4842155;29;20383;-67
2022/06/07 04:08:58;;;;;;;;;;;16.30;99.90;;;16.42;79.19;101088.06;4842233;29;19931;-67
2022/06/07 04:11:30;;;;;;;;;;;16.30;99.90;;;16.60;79.29;101118.81;4843308;29;19967;-69
2022/06/07 04:14:02;;;;;;;;;;;16.40;99.90;;;16.72;78.97;101126.53;4842143;29;19931;-68
2022/06/07 04:16:31;;;;;;;;;;;16.50;99.90;;;16.75;78.72;101131.78;4843240;29;19924;-68
2022/06/07 04:19:07;;;;;;;;;;;16.50;99.90;;;16.62;79.22;101119.66;4842023;29;19924;-67
2022/06/07 04:21:35;;;;;;;;;;;16.40;99.90;;;16.62;78.67;101127.69;4841923;29;19924;-66
2022/06/07 04:24:13;;;;;;;;;;;16.30;99.90;;;16.63;78.79;101124.97;4842009;29;19977;-65
2022/06/07 04:26:42;;;;;;;;;;;16.40;99.90;;;16.28;78.96;101092.88;4841858;29;19932;-67
2022/06/07 04:29:11;;;;;;;;;;;16.30;99.90;;;16.26;78.74;101097.38;4826810;29;19928;-67
2022/06/07 04:31:41;;;;;;;;;;;16.20;99.90;;;16.38;78.64;101128.22;4841788;29;19976;-68
2022/06/07 04:34:14;;;;;;;;;;;16.10;99.90;;;16.50;78.68;101135.97;4841875;29;19925;-68
2022/06/07 04:36:43;;;;;;;;;;;16.20;99.90;;;16.48;78.53;101138.69;4841807;29;19924;-68
2022/06/07 04:39:15;;;;;;;;;;;16.30;99.90;;;16.59;78.31;101143.78;4841848;29;19976;-67
2022/06/07 04:41:55;;;;;;;;;;;16.40;99.90;;;16.47;78.66;101136.03;4841514;29;19924;-68
2022/06/07 04:44:30;;;;;;;;;;;16.30;99.90;;;16.51;78.47;101138.59;4841574;29;20272;-68
2022/06/07 04:47:01;;;;;;;;;;;16.30;99.90;;;16.49;78.62;101142.25;4841725;29;19924;-67
2022/06/07 04:49:30;;;;;;;;;;;16.30;99.90;;;16.53;78.34;101126.09;4841661;29;20299;-68
2022/06/07 04:51:58;;;;;;;;;;;16.30;99.90;;;16.36;78.54;101133.59;4841540;29;19977;-68
2022/06/07 04:54:37;;;;;;;;;;;16.20;99.90;;;16.34;78.81;101132.75;4841666;29;19925;-68
2022/06/07 04:57:09;;;;;;;;;;;16.10;99.90;;;16.46;78.58;101142.28;4827418;29;19987;-67
2022/06/07 04:59:41;;;;;;;;;;;16.20;99.90;;;16.49;78.23;101144.94;4845477;29;20022;-68
2022/06/07 05:02:10;;;;;;;;;;;16.30;99.90;;;16.46;78.58;101142.28;4846586;29;20463;-68
2022/06/07 05:04:38;;;;;;;;;;;16.30;99.90;;;16.44;79.00;101144.09;4844890;29;19928;-67
2022/06/07 05:07:18;;;;;;;;;;;16.20;99.90;;;16.39;78.97;101143.34;4845325;29;19980;-68
2022/06/07 05:10:07;;;;;;;;;;;16.20;99.90;;;16.36;79.47;101149.63;4845303;29;19928;-67
2022/06/07 05:12:42;;;;;;;;;;;16.20;99.90;;;16.38;79.34;101146.91;4845198;29;19931;-67
2022/06/07 05:15:16;;;;;;;;;;;16.20;99.90;;;16.34;78.83;101130.09;4845262;29;20398;-67
2022/06/07 05:17:49;;;;;;;;;;;16.30;99.90;;;16.55;79.28;101150.97;4845142;29;19931;-68
2022/06/07 05:20:19;;;;;;;;;;;16.30;99.90;;;16.23;79.13;101094.78;4845150;29;20409;-67
2022/06/07 05:22:52;;;;;;;;;;;16.30;99.90;;;16.45;79.03;101146.75;4845153;29;19972;-67
2022/06/07 05:25:22;;;;;;;;;;;16.30;99.90;;;16.35;78.94;101149.66;4845041;29;19925;-68
2022/06/07 05:27:53;;;;;;;;;;;16.20;99.90;;;16.36;79.38;101149.63;4846128;29;19928;-67
2022/06/07 05:30:28;;;;;;;;;;;16.10;99.90;;;16.49;79.11;101148.44;4844965;29;20443;-68
2022/06/07 05:33:22;;;;;;;;;;;16.20;99.90;;;16.35;79.07;101120.31;4844061;29;19932;-68
2022/06/07 05:35:59;;;;;;;;;;;16.30;99.90;;;16.42;78.46;101132.56;4844872;29;19924;-68
2022/06/07 05:38:28;;;;;;;;;;;16.30;99.90;;;16.39;78.47;101149.56;4844403;29;20399;-68
2022/06/07 05:41:21;;;;;;;;;;;16.20;99.90;;;16.47;77.96;101133.38;4844636;29;19924;-68
2022/06/07 05:43:53;;;;;;;;;;;16.30;99.90;;;16.61;77.89;101158.84;4829394;29;19956;-68
2022/06/07 05:46:35;;;;;;;;;;;16.30;99.90;;;16.60;77.59;101143.75;4844588;29;19977;-68
2022/06/07 05:49:14;;;;;;;;;;;16.30;99.90;;;16.70;77.59;101150.63;4844590;29;19953;-69
2022/06/07 05:52:00;;;;;;;;;;;16.50;99.90;;;16.71;77.99;101151.47;4844512;29;19924;-67
2022/06/07 05:54:31;;;;;;;;;;;16.50;99.90;;;16.82;77.78;101160.97;4844438;29;19947;-68
2022/06/07 05:57:01;;;;;;;;;;;16.60;99.90;;;16.90;77.89;101159.00;4844480;29;19940;-67
2022/06/07 05:59:31;;;;;;;;;;;16.60;99.90;;;16.91;77.49;101166.13;4844248;29;19924;-68
2022/06/07 06:02:01;;;;;;;;;;;16.70;99.90;;;16.96;77.57;101161.50;4844319;29;20287;-68
2022/06/07 06:04:37;;;;;;;;;;;16.70;99.90;;;16.83;78.69;101153.84;4843889;29;19924;-67
2022/06/07 06:07:07;;;;;;;;;;;16.70;99.90;;;16.93;78.50;101164.28;4844319;29;20374;-68
2022/06/07 06:12:29;;;;;;;;;;;16.70;99.90;;;16.89;77.93;101165.28;4845367;29;19924;-67
2022/06/07 06:15:08;;;;;;;;;;;16.70;99.90;;;17.06;77.70;101165.72;4844224;29;19951;-67
2022/06/07 06:17:38;;;;;;;;;;;16.80;99.90;;;17.24;77.59;101163.47;4843833;29;20035;-68
2022/06/07 06:20:14;;;;;;;;;;;16.90;99.90;;;17.12;76.74;101153.97;4844031;29;19931;-68
2022/06/07 06:22:47;;;;;;;;;;;17.10;99.90;;;17.13;76.55;101150.38;4844076;29;20325;-67
2022/06/07 06:25:16;;;;;;;;;;;17.00;99.90;;;17.36;76.29;101171.16;4843512;29;20418;-68
2022/06/07 06:27:44;;;;;;;;;;;17.10;99.90;;;17.40;76.13;101192.41;4843945;29;19931;-67
2022/06/07 06:30:14;;;;;;;;;;;17.20;99.90;;;17.37;75.90;101148.81;4845048;29;19964;-67
2022/06/07 06:33:00;;;;;;;;;;;17.30;99.90;;;17.38;75.83;101170.16;4843828;29;20291;-67
2022/06/07 06:35:30;;;;;;;;;;;17.20;99.90;;;17.30;75.15;101180.22;4843829;29;19996;-67
2022/06/07 06:37:59;;;;;;;;;;;17.10;99.90;;;17.26;74.59;101172.31;4843531;29;19932;-67
2022/06/07 06:40:29;;;;;;;;;;;17.00;99.90;;;17.33;74.96;101182.81;4843705;29;19924;-69
2022/06/07 06:43:01;;;;;;;;;;;17.10;99.90;;;17.07;73.97;101178.13;4843764;29;19924;-67
2022/06/07 06:45:50;;;;;;;;;;;16.90;99.90;;;17.09;74.35;101178.13;4843655;29;20019;-67
2022/06/07 06:48:21;;;;;;;;;;;16.80;99.90;;;17.05;74.79;101177.31;4843649;29;20314;-67
2022/06/07 06:51:00;;;;;;;;;;;16.80;99.90;;;17.00;74.81;101181.91;4843583;29;19925;-70
2022/06/07 06:53:28;;;;;;;;;;;16.80;99.90;;;17.15;74.20;101186.84;4843510;29;19925;-67
2022/06/07 06:56:03;;;;;;;;;;;16.90;99.90;;;17.22;73.79;101179.56;4843513;29;20336;-67
2022/06/07 06:58:34;;;;;;;;;;;17.00;99.90;;;17.10;73.89;101190.56;4843477;29;20402;-70
2022/06/07 07:01:05;;;;;;;;;;;16.90;99.90;;;17.13;74.66;101191.34;4844282;29;19951;-70
2022/06/07 07:03:35;;;;;;;;;;;16.90;99.90;;;17.10;74.63;101180.75;4843040;29;19925;-70
2022/06/07 07:06:04;;;;;;;;;;;17.00;99.90;;;17.32;74.17;101189.09;4843629;29;19964;-70
2022/06/07 07:08:33;;;;;;;;;;;17.10;99.90;;;17.40;74.20;101195.06;4844359;29;19924;-70
2022/06/07 07:11:07;;;;;;;;;;;17.20;99.90;;;16.95;74.78;101092.97;4843201;29;19956;-69
2022/06/07 07:13:36;;;;;;;;;;;17.30;99.90;;;17.58;74.14;101188.38;4843124;29;20011;-69
2022/06/07 07:16:09;;;;;;;;;;;17.40;99.90;;;17.62;73.60;101195.41;4843136;29;19924;-70
2022/06/07 07:18:38;;;;;;;;;;;17.40;99.90;;;17.71;73.54;101193.34;4842839;29;19932;-69
2022/06/07 07:21:09;;;;;;;;;;;17.50;99.90;;;17.49;74.12;101189.53;4844074;29;19980;-67
2022/06/07 07:23:40;;;;;;;;;;;17.30;99.90;;;17.61;73.71;101183.84;4827499;29;19924;-65
2022/06/07 07:26:13;;;;;;;;;;;17.30;99.90;;;17.74;74.12;101189.72;4842926;29;19924;-67
2022/06/07 07:28:42;;;;;;;;;;;17.40;99.90;;;17.75;73.40;101195.00;4842858;29;19932;-67
2022/06/07 07:31:17;;;;;;;;;;;17.50;99.90;;;17.80;73.04;101197.56;4842849;29;19925;-67
2022/06/07 07:33:46;;;;;;;;;;;17.60;99.90;;;17.75;73.76;101197.69;4843942;29;20256;-67
2022/06/07 07:36:15;;;;;;;;;;;17.60;99.90;;;17.72;73.53;101200.47;4843724;29;20364;-67
2022/06/07 07:38:44;;;;;;;;;;;17.50;99.90;;;17.72;72.94;101196.91;4842689;29;19924;-67
2022/06/07 07:41:19;;;;;;;;;;;17.50;99.90;;;17.69;72.36;101205.03;4842592;29;19925;-67
2022/06/07 07:43:49;;;;;;;;;;;17.40;99.90;;;17.24;72.35;101104.63;4842609;29;20018;-67
2022/06/07 07:46:25;;;;;;;;;;;17.60;99.90;;;17.70;72.43;101188.03;4842550;29;19924;-67
2022/06/07 07:48:54;;;;;;;;;;;17.60;99.90;;;17.73;72.13;101196.84;4842472;29;19928;-68
2022/06/07 07:51:24;;;;;;;;;;;17.50;99.90;;;17.81;72.86;101196.63;4842484;29;19925;-68
2022/06/07 07:53:57;;;;;;;;;;;17.60;99.90;;;17.67;71.79;101162.25;4827211;29;19981;-68
2022/06/07 07:56:27;;;;;;;;;;;17.70;99.90;;;17.91;71.91;101174.94;4842424;29;19924;-68
2022/06/07 07:58:59;;;;;;;;;;;17.80;99.90;;;18.17;72.00;101202.72;4842215;29;19924;-68
2022/06/07 08:01:32;;;;;;;;;;;17.90;99.90;;;18.31;71.28;101196.00;4842220;29;19928;-68
2022/06/07 08:04:01;;;;;;;;;;;18.10;99.90;;;18.39;71.33;101199.31;4843365;29;19924;-68
2022/06/07 08:06:45;;;;;;;;;;;18.20;99.90;;;18.43;71.18;101206.38;4842092;29;19924;-68
2022/06/07 08:09:14;;;;;;;;;;;18.30;99.90;;;18.27;70.52;101189.03;4842108;29;20443;-68
2022/06/07 08:11:43;;;;;;;;;;;18.20;99.90;;;18.26;70.66;101192.59;4843067;29;20456;-68
2022/06/07 08:14:14;;;;;;;;;;;18.10;99.90;;;18.43;70.17;101205.50;4842909;29;19973;-68
2022/06/07 08:16:45;;;;;;;;;;;18.20;99.90;;;18.47;70.01;101212.50;4843112;29;19985;-68
2022/06/07 08:19:14;;;;;;;;;;;18.20;99.90;;;18.40;69.69;101197.53;4842847;29;20371;-68
2022/06/07 08:21:42;;;;;;;;;;;18.20;99.90;;;18.35;69.73;101205.69;4842909;29;20019;-68
2022/06/07 08:24:10;;;;;;;;;;;18.10;99.90;;;18.36;69.99;101195.88;4843172;29;19968;-68
2022/06/07 08:26:38;;;;;;;;;;;18.00;99.90;;;18.40;70.84;101202.88;4842800;29;19968;-68
2022/06/07 08:29:07;;;;;;;;;;;18.10;99.90;;;18.33;70.76;101202.19;4842865;29;19960;-68
2022/06/07 08:31:35;;;;;;;;;;;18.00;99.90;;;18.39;70.39;101202.00;4842270;29;20454;-68
2022/06/07 08:39:42;;;;;;;;;;;18.30;99.90;;;18.38;70.67;101170.81;4841817;29;19964;-68
2022/06/07 08:42:17;;;;;;;;;;;18.30;99.90;;;18.77;70.53;101204.41;4842876;29;19925;-68
2022/06/07 08:44:48;;;;;;;;;;;18.50;99.90;;;18.88;69.37;101206.72;4842734;29;19964;-68
2022/06/07 08:47:20;;;;;;;;;;;18.60;99.90;;;18.90;69.12;101205.75;4842935;29;19933;-68
2022/06/07 08:49:54;;;;;;;;;;;18.70;99.90;;;18.72;69.32;101174.16;4842232;29;19924;-68
2022/06/07 08:52:26;;;;;;;;;;;18.70;99.90;;;18.69;69.30;101160.00;4842903;29;19980;-68
2022/06/07 08:54:58;;;;;;;;;;;18.70;99.90;;;18.95;69.30;101167.19;4842553;29;19924;-68
2022/06/07 08:57:30;;;;;;;;;;;18.90;99.90;;;19.32;68.63;101202.50;4841352;29;19925;-68
2022/06/07 09:00:08;;;;;;;;;;;19.10;99.90;;;19.10;67.87;101212.25;4842894;29;19928;-68
2022/06/07 09:02:53;;;;;;;;;;;18.90;99.90;;;19.13;68.38;101199.59;4842512;29;20387;-68
2022/06/07 09:05:26;;;;;;;;;;;18.90;99.90;;;19.07;68.15;101188.19;4842699;29;20434;-68
2022/06/07 09:07:55;;;;;;;;;;;18.90;99.90;;;19.33;68.33;101207.88;4842481;29;19924;-68
2022/06/07 09:13:20;;;;;;;;;;;19.10;99.90;;;19.56;68.35;101207.94;4842835;29;20396;-68
2022/06/07 09:15:52;;;;;;;;;;;19.20;99.90;;;19.73;69.08;101175.09;4841392;29;20459;-68
2022/06/07 09:18:22;;;;;;;;;;;19.50;99.90;;;19.53;67.45;101118.63;4842656;29;19930;-68
2022/06/07 09:20:54;;;;;;;;;;;19.70;99.90;;;19.73;67.52;101205.53;4842365;29;19925;-68
2022/06/07 09:23:27;;;;;;;;;;;19.60;99.90;;;19.63;67.36;101204.09;4842402;29;19924;-68
2022/06/07 09:25:57;;;;;;;;;;;19.40;99.90;;;19.33;67.07;101196.25;4842622;29;20340;-68
2022/06/07 09:28:28;;;;;;;;;;;19.20;99.90;;;19.39;67.25;101210.34;4841313;29;20442;-68
2022/06/07 09:30:59;;;;;;;;;;;19.10;99.90;;;19.36;67.39;101180.03;4842300;29;19959;-68
2022/06/07 09:33:29;;;;;;;;;;;19.10;99.90;;;19.51;68.24;101201.00;4842128;29;20427;-68
2022/06/07 09:36:02;;;;;;;;;;;19.20;99.90;;;19.36;68.35;101164.84;4841323;29;19952;-68
2022/06/07 09:38:35;;;;;;;;;;;19.30;99.90;;;19.34;68.02;101182.78;4826033;29;20041;-68
2022/06/07 09:44:02;;;;;;;;;;;19.40;99.90;;;19.39;68.33;101210.34;4843670;29;19924;-68
2022/06/07 09:46:32;;;;;;;;;;;19.30;99.90;;;19.32;68.77;101213.25;4845901;29;20236;-68
2022/06/07 09:49:01;;;;;;;;;;;19.10;99.90;;;19.26;68.54;101216.16;4845802;29;19959;-68
2022/06/07 09:51:38;;;;;;;;;;;19.00;99.90;;;19.08;68.77;101176.56;4845753;29;19931;-68
2022/06/07 09:54:16;;;;;;;;;;;19.10;99.90;;;19.25;69.54;101211.72;4845704;29;19953;-68
2022/06/07 09:56:55;;;;;;;;;;;19.00;99.90;;;19.25;69.91;101191.13;4845466;29;19977;-68
2022/06/07 09:59:43;;;;;;;;;;;19.10;99.90;;;19.32;70.41;101205.19;4845713;29;19981;-68
2022/06/07 10:02:36;;;;;;;;;;;19.10;99.90;;;19.41;70.46;101199.56;4845546;29;19925;-68
2022/06/07 10:05:12;;;;;;;;;;;19.10;99.90;;;19.58;69.65;101205.19;4844127;29;19976;-68
2022/06/07 10:07:47;;;;;;;;;;;19.30;99.90;;;19.36;69.91;101198.81;4845325;29;20376;-68
2022/06/07 10:10:21;;;;;;;;;;;19.20;99.90;;;19.29;69.48;101165.06;4845223;29;19978;-68
2022/06/07 10:12:58;;;;;;;;;;;19.30;99.90;;;19.30;68.89;101186.47;4845181;29;19928;-68
2022/06/07 10:15:31;;;;;;;;;;;19.30;99.90;;;19.42;69.01;101195.94;4844158;29;19990;-68
2022/06/07 10:18:10;;;;;;;;;;;19.20;99.90;;;19.59;69.52;101202.44;4845082;29;20019;-69
2022/06/07 10:20:48;;;;;;;;;;;19.30;99.90;;;19.62;68.86;101205.03;4845070;29;19933;-68
2022/06/07 10:23:30;;;;;;;;;;;19.30;99.90;;;19.47;69.71;101213.63;4845293;29;19980;-68
2022/06/07 10:26:06;;;;;;;;;;;19.30;99.90;;;19.31;69.85;101184.69;4844968;29;19980;-69
2022/06/07 10:28:38;;;;;;;;;;;19.10;99.90;;;19.30;70.70;101201.72;4844864;29;19959;-68
2022/06/07 10:31:11;;;;;;;;;;;19.10;99.90;;;18.88;70.70;101210.28;4844816;29;19924;-68
2022/06/07 10:33:51;;;;;;;;;;;18.70;99.90;;;18.81;71.41;101181.06;4844905;29;19985;-68
2022/06/07 10:36:34;;;;;;;;;;;18.60;99.90;;;18.97;71.21;101182.25;4844648;29;19928;-68
2022/06/07 10:39:11;;;;;;;;;;;18.80;99.90;;;19.13;71.06;101209.44;4843769;29;19959;-68
2022/06/07 10:41:46;;;;;;;;;;;18.80;99.90;;;19.27;70.02;101207.16;4843721;29;19981;-68
2022/06/07 10:44:24;;;;;;;;;;;19.00;99.90;;;19.33;69.39;101215.94;4844665;29;19932;-68
2022/06/07 10:46:52;;;;;;;;;;;19.10;99.90;;;19.33;69.49;101207.88;4844893;29;19928;-68
2022/06/07 10:49:25;;;;;;;;;;;19.10;99.90;;;19.45;69.10;101211.94;4844316;29;20031;-68
2022/06/07 10:54:55;;;;;;;;;;;19.20;99.90;;;19.37;68.88;101179.13;4843893;29;19924;-68
2022/06/07 10:57:30;;;;;;;;;;;19.30;99.90;;;19.50;68.74;101170.59;4844968;29;19947;-68
2022/06/07 11:00:00;;;;;;;;;;;19.40;99.90;;;19.80;68.53;101203.50;4844236;29;19924;-68
2022/06/07 11:02:46;;;;;;;;;;;19.50;99.90;;;19.37;68.76;101200.59;4844402;29;19928;-68
2022/06/07 11:11:05;;;;;;;;;;;19.60;99.90;;;19.91;67.54;101192.34;4844610;29;20027;-68
2022/06/07 11:13:38;;;;;;;;;;;19.80;99.90;;;20.10;66.71;101204.13;4844455;29;19924;-68
2022/06/07 11:16:10;;;;;;;;;;;19.80;99.90;;;20.07;67.37;101205.16;4843096;29;20163;-68
2022/06/07 11:18:41;;;;;;;;;;;19.80;99.90;;;20.08;66.70;101212.25;4844305;29;19939;-68
2022/06/07 11:21:13;;;;;;;;;;;19.80;99.90;;;20.11;67.00;101211.28;4844253;29;19929;-68
2022/06/07 11:23:47;;;;;;;;;;;19.80;99.90;;;19.76;67.34;101207.22;4844027;29;19929;-68
2022/06/07 11:26:18;;;;;;;;;;;19.60;99.90;;;19.15;67.57;101181.66;4843841;29;19952;-68
2022/06/07 11:28:48;;;;;;;;;;;19.30;99.90;;;19.28;68.69;101208.94;4844030;29;19924;-68
2022/06/07 11:31:39;;;;;;;;;;;19.10;99.90;;;19.17;69.13;101219.13;4843753;29;19924;-68
2022/06/07 11:34:13;;;;;;;;;;;18.90;99.90;;;18.82;70.63;101201.56;4843690;29;19947;-68
2022/06/07 11:36:42;;;;;;;;;;;18.70;99.90;;;19.15;69.84;101199.53;4844358;29;20391;-68
2022/06/07 11:39:29;;;;;;;;;;;18.90;99.90;;;19.15;70.78;101210.25;4844204;29;19928;-68
2022/06/07 11:42:14;;;;;;;;;;;18.90;99.90;;;19.39;70.71;101213.03;4844241;29;19928;-68
2022/06/07 11:44:59;;;;;;;;;;;19.10;99.90;;;19.30;70.93;101182.94;4843071;29;19970;-69
2022/06/07 11:47:36;;;;;;;;;;;19.20;99.90;;;19.49;70.66;101182.22;4826536;29;19931;-68
2022/06/07 11:50:27;;;;;;;;;;;19.40;99.90;;;19.47;70.61;101185.94;4843408;29;20018;-68
2022/06/07 11:53:00;;;;;;;;;;;19.30;99.90;;;19.51;70.09;101201.00;4843745;29;19931;-68
2022/06/07 11:55:39;;;;;;;;;;;19.30;99.90;;;19.52;70.01;101181.25;4843675;29;19967;-69
2022/06/07 11:58:09;;;;;;;;;;;19.30;99.90;;;19.62;70.53;101198.78;4843373;29;19924;-68
2022/06/07 12:00:49;;;;;;;;;;;19.40;99.90;;;19.47;70.45;101157.25;4843173;29;19924;-68
2022/06/07 12:03:33;;;;;;;;;;;19.40;99.90;;;19.60;70.82;101163.06;4843182;29;19931;-68
2022/06/07 12:06:21;;;;;;;;;;;19.40;99.90;;;19.88;70.41;101201.38;4841932;29;19925;-69